Terminal Aerodrome Forecast
Issued by NWS Mt. Holly, NJ

Home | Current Version | Previous Version | Text Only | Print | Product List | Glossary On
Versions: 1 2 3 4 5 6 7 8 9 10 11 12 13 14 15 16 17 18 19 20 21 22
000
FTUS41 KPHI 182344
TAFPHL
TAF
KPHL 182344Z 1900/2006 27011KT P6SM SCT250
     FM190200 34010KT P6SM SKC
     FM190500 02008KT P6SM SKC
     FM191300 06010KT P6SM SKC
     FM192200 10012G20KT P6SM OVC100
     FM200300 10012G20KT P6SM SCT015 OVC030
      TEMPO 2003/2006 5SM -RA BR OVC015=

USA.gov is the U.S. government's official web portal to all federal, state and local government web resources and services.